This is the latest recevied weather packets stored in our database for station/object KD9IXX-13. If no packets are shown the sender has not sent any weather packets the latest 10 day(s).
| Time | Temp. | Humidity | Pressure | Rain* | Wind** | Luminosity | Snow |
|---|---|---|---|---|---|---|---|
| 1777413302 | 16.67° C | 68% | 1014.3 hPa | 0 mm | - | 332 W/m² | - |
| 1777413002 | 16.67° C | 68% | 1014.4 hPa | 0 mm | - | 353 W/m² | - |
| 1777412702 | 16.67° C | 68% | 1014.3 hPa | 0 mm | - | 360 W/m² | - |
| 1777412402 | 17.22° C | 66% | 1014.6 hPa | 0 mm | - | 360 W/m² | - |
| 1777412102 | 17.22° C | 66% | 1014.7 hPa | 0 mm | - | 393 W/m² | - |
| 1777411802 | 17.22° C | 69% | 1014.9 hPa | 0 mm | - | 395 W/m² | - |
| 1777411502 | 16.67° C | 68% | 1015.1 hPa | 0 mm | - | 430 W/m² | - |
| 1777411202 | 16.67° C | 68% | 1015 hPa | 0 mm | - | 443 W/m² | - |
| 1777410902 | 17.22° C | 67% | 1015 hPa | 0 mm | - | 456 W/m² | - |
| 1777410603 | 17.22° C | 68% | 1015.2 hPa | 0 mm | - | 476 W/m² | - |
| 1777410302 | 16.67° C | 68% | 1015.3 hPa | 0 mm | - | 481 W/m² | - |
| 1777410002 | 16.67° C | 69% | 1015.4 hPa | 0 mm | - | 494 W/m² | - |
| 1777409702 | 16.67° C | 70% | 1015.3 hPa | 0 mm | - | 483 W/m² | - |
| 1777409402 | 16.67° C | 69% | 1015.2 hPa | 0 mm | - | 465 W/m² | - |
| 1777409102 | 16.67° C | 70% | 1015.2 hPa | 0 mm | - | 491 W/m² | - |
| 1777408802 | 16.11° C | 69% | 1015.2 hPa | 0 mm | - | 500 W/m² | - |
| 1777408502 | 16.11° C | 71% | 1015.5 hPa | 0 mm | - | 542 W/m² | - |
| 1777408203 | 16.67° C | 68% | 1015.3 hPa | 0 mm | - | 548 W/m² | - |
| 1777407902 | 16.67° C | 71% | 1015.4 hPa | 0 mm | - | 527 W/m² | - |
| 1777407602 | 16.11° C | 72% | 1015.6 hPa | 0 mm | - | 544 W/m² | - |
| 1777407302 | 16.11° C | 71% | 1015.3 hPa | 0 mm | - | 515 W/m² | - |
| 1777407002 | 16.11° C | 70% | 1015.4 hPa | 0 mm | - | 578 W/m² | - |
| 1777406702 | 16.11° C | 71% | 1015.3 hPa | 0 mm | - | 569 W/m² | - |
| 1777406402 | 16.11° C | 71% | 1015.4 hPa | 0 mm | - | 587 W/m² | - |
| 1777406102 | 16.11° C | 73% | 1015.3 hPa | 0 mm | - | 593 W/m² | - |
* Rain latest hour (hover to see other rain measurements)
** Current wind speed in m/s (hover to see current wind gust speed)